sensor_id;sensor_type;location;lat;lon;timestamp;temperature;humidity
20650;DHT22;10484;48.736;9.332;2022-10-16T00:01:25;16.40;1.00
20650;DHT22;10484;48.736;9.332;2022-10-16T00:03:52;16.40;1.00
20650;DHT22;10484;48.736;9.332;2022-10-16T00:06:20;16.30;1.00
20650;DHT22;10484;48.736;9.332;2022-10-16T00:08:46;16.30;1.00
20650;DHT22;10484;48.736;9.332;2022-10-16T00:11:19;16.30;1.00
20650;DHT22;10484;48.736;9.332;2022-10-16T00:13:46;16.30;1.00
20650;DHT22;10484;48.736;9.332;2022-10-16T00:16:12;16.30;1.00
20650;DHT22;10484;48.736;9.332;2022-10-16T00:18:39;16.30;1.00
20650;DHT22;10484;48.736;9.332;2022-10-16T00:21:11;16.30;1.00
20650;DHT22;10484;48.736;9.332;2022-10-16T00:23:38;16.30;1.00
20650;DHT22;10484;48.736;9.332;2022-10-16T00:26:06;16.30;1.00
20650;DHT22;10484;48.736;9.332;2022-10-16T00:28:33;16.30;1.00
20650;DHT22;10484;48.736;9.332;2022-10-16T00:30:58;16.30;1.00
20650;DHT22;10484;48.736;9.332;2022-10-16T00:33:24;16.20;1.00
20650;DHT22;10484;48.736;9.332;2022-10-16T00:35:50;16.20;1.00
20650;DHT22;10484;48.736;9.332;2022-10-16T00:38:16;16.20;1.00
20650;DHT22;10484;48.736;9.332;2022-10-16T00:40:42;16.20;1.00
20650;DHT22;10484;48.736;9.332;2022-10-16T00:46:01;16.20;1.00
20650;DHT22;10484;48.736;9.332;2022-10-16T00:48:27;16.20;1.00
20650;DHT22;10484;48.736;9.332;2022-10-16T00:50:53;16.10;1.00
20650;DHT22;10484;48.736;9.332;2022-10-16T00:53:19;16.10;1.00
20650;DHT22;10484;48.736;9.332;2022-10-16T00:55:45;16.10;1.00
20650;DHT22;10484;48.736;9.332;2022-10-16T00:58:11;16.10;1.00
20650;DHT22;10484;48.736;9.332;2022-10-16T01:00:37;16.10;1.00
20650;DHT22;10484;48.736;9.332;2022-10-16T01:03:03;16.10;1.00
20650;DHT22;10484;48.736;9.332;2022-10-16T01:05:45;16.10;1.00
20650;DHT22;10484;48.736;9.332;2022-10-16T01:08:29;16.00;1.00
20650;DHT22;10484;48.736;9.332;2022-10-16T01:11:02;16.00;1.00
20650;DHT22;10484;48.736;9.332;2022-10-16T01:13:37;16.00;1.00
20650;DHT22;10484;48.736;9.332;2022-10-16T01:16:11;16.00;1.00
20650;DHT22;10484;48.736;9.332;2022-10-16T01:18:53;15.90;1.00
20650;DHT22;10484;48.736;9.332;2022-10-16T01:21:36;16.00;1.00
20650;DHT22;10484;48.736;9.332;2022-10-16T01:24:28;15.90;1.00
20650;DHT22;10484;48.736;9.332;2022-10-16T01:29:55;15.90;1.00
20650;DHT22;10484;48.736;9.332;2022-10-16T01:35:30;15.80;1.00
20650;DHT22;10484;48.736;9.332;2022-10-16T01:38:05;15.80;1.00
20650;DHT22;10484;48.736;9.332;2022-10-16T01:40:34;15.80;1.00
20650;DHT22;10484;48.736;9.332;2022-10-16T01:43:17;15.80;1.00
20650;DHT22;10484;48.736;9.332;2022-10-16T01:45:45;15.80;1.00
20650;DHT22;10484;48.736;9.332;2022-10-16T01:48:13;15.80;1.00
20650;DHT22;10484;48.736;9.332;2022-10-16T01:50:41;15.80;1.00
20650;DHT22;10484;48.736;9.332;2022-10-16T01:53:10;15.70;1.00
20650;DHT22;10484;48.736;9.332;2022-10-16T01:55:40;15.70;1.00
20650;DHT22;10484;48.736;9.332;2022-10-16T01:58:11;15.70;1.00
20650;DHT22;10484;48.736;9.332;2022-10-16T02:00:40;15.70;1.00
20650;DHT22;10484;48.736;9.332;2022-10-16T02:03:07;15.70;1.00
20650;DHT22;10484;48.736;9.332;2022-10-16T02:05:41;15.70;1.00
20650;DHT22;10484;48.736;9.332;2022-10-16T02:08:08;15.70;1.00
20650;DHT22;10484;48.736;9.332;2022-10-16T02:10:36;15.70;1.00
20650;DHT22;10484;48.736;9.332;2022-10-16T02:13:19;15.70;1.00
20650;DHT22;10484;48.736;9.332;2022-10-16T02:15:47;15.70;1.00
20650;DHT22;10484;48.736;9.332;2022-10-16T02:18:13;15.60;1.00
20650;DHT22;10484;48.736;9.332;2022-10-16T02:20:53;15.60;1.00
20650;DHT22;10484;48.736;9.332;2022-10-16T02:26:03;15.60;1.00
20650;DHT22;10484;48.736;9.332;2022-10-16T02:28:41;15.60;1.00
20650;DHT22;10484;48.736;9.332;2022-10-16T02:31:11;15.60;1.00
20650;DHT22;10484;48.736;9.332;2022-10-16T02:33:40;15.60;1.00
20650;DHT22;10484;48.736;9.332;2022-10-16T02:36:07;15.60;1.00
20650;DHT22;10484;48.736;9.332;2022-10-16T02:38:33;15.60;1.00
20650;DHT22;10484;48.736;9.332;2022-10-16T02:40:59;15.50;1.00
20650;DHT22;10484;48.736;9.332;2022-10-16T02:43:25;15.50;1.00
20650;DHT22;10484;48.736;9.332;2022-10-16T02:45:51;15.50;1.00
20650;DHT22;10484;48.736;9.332;2022-10-16T02:48:17;15.50;1.00
20650;DHT22;10484;48.736;9.332;2022-10-16T02:50:43;15.50;1.00
20650;DHT22;10484;48.736;9.332;2022-10-16T02:53:08;15.50;1.00
20650;DHT22;10484;48.736;9.332;2022-10-16T02:55:34;15.50;1.00
20650;DHT22;10484;48.736;9.332;2022-10-16T02:57:59;15.50;1.00
20650;DHT22;10484;48.736;9.332;2022-10-16T03:00:25;15.50;1.00
20650;DHT22;10484;48.736;9.332;2022-10-16T03:02:51;15.50;1.00
20650;DHT22;10484;48.736;9.332;2022-10-16T03:05:16;15.50;1.00
20650;DHT22;10484;48.736;9.332;2022-10-16T03:07:42;15.50;1.00
20650;DHT22;10484;48.736;9.332;2022-10-16T03:10:08;15.50;1.00
20650;DHT22;10484;48.736;9.332;2022-10-16T03:12:34;15.40;1.00
20650;DHT22;10484;48.736;9.332;2022-10-16T03:14:59;15.40;1.00
20650;DHT22;10484;48.736;9.332;2022-10-16T03:17:25;15.50;1.00
20650;DHT22;10484;48.736;9.332;2022-10-16T03:19:51;15.50;1.00
20650;DHT22;10484;48.736;9.332;2022-10-16T03:22:17;15.40;1.00
20650;DHT22;10484;48.736;9.332;2022-10-16T03:24:43;15.40;1.00
20650;DHT22;10484;48.736;9.332;2022-10-16T03:27:09;15.40;1.00
20650;DHT22;10484;48.736;9.332;2022-10-16T03:29:34;15.40;1.00
20650;DHT22;10484;48.736;9.332;2022-10-16T03:32:00;15.40;1.00
20650;DHT22;10484;48.736;9.332;2022-10-16T03:34:26;15.40;1.00
20650;DHT22;10484;48.736;9.332;2022-10-16T03:36:52;15.40;1.00
20650;DHT22;10484;48.736;9.332;2022-10-16T03:39:18;15.40;1.00
20650;DHT22;10484;48.736;9.332;2022-10-16T03:41:43;15.40;1.00
20650;DHT22;10484;48.736;9.332;2022-10-16T03:44:09;15.40;1.00
20650;DHT22;10484;48.736;9.332;2022-10-16T03:46:35;15.30;1.00
20650;DHT22;10484;48.736;9.332;2022-10-16T03:49:00;15.30;1.00
20650;DHT22;10484;48.736;9.332;2022-10-16T03:51:26;15.30;1.00
20650;DHT22;10484;48.736;9.332;2022-10-16T03:53:51;15.30;1.00
20650;DHT22;10484;48.736;9.332;2022-10-16T03:56:17;15.30;1.00
20650;DHT22;10484;48.736;9.332;2022-10-16T03:58:42;15.30;1.00
20650;DHT22;10484;48.736;9.332;2022-10-16T04:01:08;15.30;1.00
20650;DHT22;10484;48.736;9.332;2022-10-16T04:03:34;15.30;1.00
20650;DHT22;10484;48.736;9.332;2022-10-16T04:05:59;15.30;1.00
20650;DHT22;10484;48.736;9.332;2022-10-16T04:08:25;15.20;1.00
20650;DHT22;10484;48.736;9.332;2022-10-16T04:10:51;15.20;1.00
20650;DHT22;10484;48.736;9.332;2022-10-16T04:13:16;15.20;1.00
20650;DHT22;10484;48.736;9.332;2022-10-16T04:15:42;15.20;1.00
20650;DHT22;10484;48.736;9.332;2022-10-16T04:18:09;15.20;1.00
20650;DHT22;10484;48.736;9.332;2022-10-16T04:20:35;15.20;1.00
20650;DHT22;10484;48.736;9.332;2022-10-16T04:23:00;15.20;1.00
20650;DHT22;10484;48.736;9.332;2022-10-16T04:25:26;15.20;1.00
20650;DHT22;10484;48.736;9.332;2022-10-16T04:27:55;15.10;1.00
20650;DHT22;10484;48.736;9.332;2022-10-16T04:30:21;15.10;1.00
20650;DHT22;10484;48.736;9.332;2022-10-16T04:32:48;15.10;1.00
20650;DHT22;10484;48.736;9.332;2022-10-16T04:35:15;15.10;1.00
20650;DHT22;10484;48.736;9.332;2022-10-16T04:37:41;15.10;1.00
20650;DHT22;10484;48.736;9.332;2022-10-16T04:40:07;15.10;1.00
20650;DHT22;10484;48.736;9.332;2022-10-16T04:42:32;15.10;1.00
20650;DHT22;10484;48.736;9.332;2022-10-16T04:44:58;15.10;1.00
20650;DHT22;10484;48.736;9.332;2022-10-16T04:47:24;15.10;1.00
20650;DHT22;10484;48.736;9.332;2022-10-16T04:49:49;15.10;1.00
20650;DHT22;10484;48.736;9.332;2022-10-16T04:52:15;15.10;1.00
20650;DHT22;10484;48.736;9.332;2022-10-16T04:54:40;15.10;1.00
20650;DHT22;10484;48.736;9.332;2022-10-16T04:57:06;15.00;1.00
20650;DHT22;10484;48.736;9.332;2022-10-16T04:59:32;15.00;1.00
20650;DHT22;10484;48.736;9.332;2022-10-16T05:01:57;15.00;1.00
20650;DHT22;10484;48.736;9.332;2022-10-16T05:04:23;15.00;1.00
20650;DHT22;10484;48.736;9.332;2022-10-16T05:06:49;15.00;1.00
20650;DHT22;10484;48.736;9.332;2022-10-16T05:09:14;15.00;1.00
20650;DHT22;10484;48.736;9.332;2022-10-16T05:11:40;15.00;1.00
20650;DHT22;10484;48.736;9.332;2022-10-16T05:14:05;15.00;1.00
20650;DHT22;10484;48.736;9.332;2022-10-16T05:16:31;15.00;1.00
20650;DHT22;10484;48.736;9.332;2022-10-16T05:18:57;15.00;1.00
20650;DHT22;10484;48.736;9.332;2022-10-16T05:21:22;15.00;1.00
20650;DHT22;10484;48.736;9.332;2022-10-16T05:23:48;15.00;1.00
20650;DHT22;10484;48.736;9.332;2022-10-16T05:26:14;14.90;1.00
20650;DHT22;10484;48.736;9.332;2022-10-16T05:28:39;15.00;1.00
20650;DHT22;10484;48.736;9.332;2022-10-16T05:31:06;14.90;1.00
20650;DHT22;10484;48.736;9.332;2022-10-16T05:33:32;14.90;1.00
20650;DHT22;10484;48.736;9.332;2022-10-16T05:36:03;14.90;1.00
20650;DHT22;10484;48.736;9.332;2022-10-16T05:38:29;14.90;1.00
20650;DHT22;10484;48.736;9.332;2022-10-16T05:40:54;14.90;1.00
20650;DHT22;10484;48.736;9.332;2022-10-16T05:43:20;14.90;1.00
20650;DHT22;10484;48.736;9.332;2022-10-16T05:45:54;14.90;1.00
20650;DHT22;10484;48.736;9.332;2022-10-16T05:48:20;14.90;1.00
20650;DHT22;10484;48.736;9.332;2022-10-16T05:50:45;14.90;1.00
20650;DHT22;10484;48.736;9.332;2022-10-16T05:53:11;14.90;1.00
20650;DHT22;10484;48.736;9.332;2022-10-16T05:55:36;14.90;1.00
20650;DHT22;10484;48.736;9.332;2022-10-16T05:58:02;14.80;1.00
20650;DHT22;10484;48.736;9.332;2022-10-16T06:00:28;14.80;1.00
20650;DHT22;10484;48.736;9.332;2022-10-16T06:02:53;14.80;1.00
20650;DHT22;10484;48.736;9.332;2022-10-16T06:05:19;14.80;1.00
20650;DHT22;10484;48.736;9.332;2022-10-16T06:07:45;14.80;1.00
20650;DHT22;10484;48.736;9.332;2022-10-16T06:10:10;14.80;1.00
20650;DHT22;10484;48.736;9.332;2022-10-16T06:12:36;14.80;1.00
20650;DHT22;10484;48.736;9.332;2022-10-16T06:15:02;14.80;1.00
20650;DHT22;10484;48.736;9.332;2022-10-16T06:17:27;14.80;1.00
20650;DHT22;10484;48.736;9.332;2022-10-16T06:19:53;14.80;1.00
20650;DHT22;10484;48.736;9.332;2022-10-16T06:22:18;14.80;1.00
20650;DHT22;10484;48.736;9.332;2022-10-16T06:24:44;14.80;1.00
20650;DHT22;10484;48.736;9.332;2022-10-16T06:27:11;14.70;1.00
20650;DHT22;10484;48.736;9.332;2022-10-16T06:29:37;14.70;1.00
20650;DHT22;10484;48.736;9.332;2022-10-16T06:32:03;14.70;1.00
20650;DHT22;10484;48.736;9.332;2022-10-16T06:34:28;14.70;1.00
20650;DHT22;10484;48.736;9.332;2022-10-16T06:36:54;14.70;1.00
20650;DHT22;10484;48.736;9.332;2022-10-16T06:39:20;14.70;1.00
20650;DHT22;10484;48.736;9.332;2022-10-16T06:41:46;14.70;1.00
20650;DHT22;10484;48.736;9.332;2022-10-16T06:44:11;14.70;1.00
20650;DHT22;10484;48.736;9.332;2022-10-16T06:46:37;14.70;1.00
20650;DHT22;10484;48.736;9.332;2022-10-16T06:49:03;14.70;1.00
20650;DHT22;10484;48.736;9.332;2022-10-16T06:51:28;14.70;1.00
20650;DHT22;10484;48.736;9.332;2022-10-16T06:53:55;14.80;1.00
20650;DHT22;10484;48.736;9.332;2022-10-16T06:56:24;14.80;1.00
20650;DHT22;10484;48.736;9.332;2022-10-16T06:58:51;14.80;1.00
20650;DHT22;10484;48.736;9.332;2022-10-16T07:01:18;14.80;1.00
20650;DHT22;10484;48.736;9.332;2022-10-16T07:03:45;14.80;1.00
20650;DHT22;10484;48.736;9.332;2022-10-16T07:06:13;14.80;1.00
20650;DHT22;10484;48.736;9.332;2022-10-16T07:08:41;14.80;1.00
20650;DHT22;10484;48.736;9.332;2022-10-16T07:11:10;14.80;1.00
20650;DHT22;10484;48.736;9.332;2022-10-16T07:13:37;14.90;1.00
20650;DHT22;10484;48.736;9.332;2022-10-16T07:16:07;14.90;1.00
20650;DHT22;10484;48.736;9.332;2022-10-16T07:18:33;14.90;1.00
20650;DHT22;10484;48.736;9.332;2022-10-16T07:21:19;14.90;1.00
20650;DHT22;10484;48.736;9.332;2022-10-16T07:23:56;14.90;1.00
20650;DHT22;10484;48.736;9.332;2022-10-16T07:26:22;14.90;1.00
20650;DHT22;10484;48.736;9.332;2022-10-16T07:28:49;15.00;1.00
20650;DHT22;10484;48.736;9.332;2022-10-16T07:31:18;14.90;1.00
20650;DHT22;10484;48.736;9.332;2022-10-16T07:33:45;15.00;1.00
20650;DHT22;10484;48.736;9.332;2022-10-16T07:36:12;15.00;1.00
20650;DHT22;10484;48.736;9.332;2022-10-16T07:38:38;15.00;1.00
20650;DHT22;10484;48.736;9.332;2022-10-16T07:41:06;15.00;1.00
20650;DHT22;10484;48.736;9.332;2022-10-16T07:43:32;15.00;1.00
20650;DHT22;10484;48.736;9.332;2022-10-16T07:45:58;15.10;1.00
20650;DHT22;10484;48.736;9.332;2022-10-16T07:48:27;15.10;1.00
20650;DHT22;10484;48.736;9.332;2022-10-16T07:50:56;15.10;1.00
20650;DHT22;10484;48.736;9.332;2022-10-16T07:53:22;15.10;1.00
20650;DHT22;10484;48.736;9.332;2022-10-16T07:55:47;15.10;1.00
20650;DHT22;10484;48.736;9.332;2022-10-16T07:58:13;15.10;1.00
20650;DHT22;10484;48.736;9.332;2022-10-16T08:00:38;15.20;1.00
20650;DHT22;10484;48.736;9.332;2022-10-16T08:03:04;15.20;1.00
20650;DHT22;10484;48.736;9.332;2022-10-16T08:05:31;15.20;1.00
20650;DHT22;10484;48.736;9.332;2022-10-16T08:07:58;15.20;1.00
20650;DHT22;10484;48.736;9.332;2022-10-16T08:10:25;15.30;1.00
20650;DHT22;10484;48.736;9.332;2022-10-16T08:12:51;15.30;1.00
20650;DHT22;10484;48.736;9.332;2022-10-16T08:15:18;15.30;1.00
20650;DHT22;10484;48.736;9.332;2022-10-16T08:17:44;15.30;1.00
20650;DHT22;10484;48.736;9.332;2022-10-16T08:20:10;15.40;1.00
20650;DHT22;10484;48.736;9.332;2022-10-16T08:22:36;15.40;1.00
20650;DHT22;10484;48.736;9.332;2022-10-16T08:25:02;15.40;1.00
20650;DHT22;10484;48.736;9.332;2022-10-16T08:27:33;15.40;1.00
20650;DHT22;10484;48.736;9.332;2022-10-16T08:29:59;15.50;1.00
20650;DHT22;10484;48.736;9.332;2022-10-16T08:32:25;15.50;1.00
20650;DHT22;10484;48.736;9.332;2022-10-16T08:34:50;15.50;1.00
20650;DHT22;10484;48.736;9.332;2022-10-16T08:37:16;15.50;1.00
20650;DHT22;10484;48.736;9.332;2022-10-16T08:39:42;15.60;1.00
20650;DHT22;10484;48.736;9.332;2022-10-16T08:42:20;15.60;1.00
20650;DHT22;10484;48.736;9.332;2022-10-16T08:45:19;15.70;1.00
20650;DHT22;10484;48.736;9.332;2022-10-16T08:50:38;15.80;1.00
20650;DHT22;10484;48.736;9.332;2022-10-16T08:53:05;15.90;1.00
20650;DHT22;10484;48.736;9.332;2022-10-16T08:55:38;15.90;1.00
20650;DHT22;10484;48.736;9.332;2022-10-16T08:58:18;16.00;1.00
20650;DHT22;10484;48.736;9.332;2022-10-16T09:00:56;16.00;1.00
20650;DHT22;10484;48.736;9.332;2022-10-16T09:17:00;16.30;1.00
20650;DHT22;10484;48.736;9.332;2022-10-16T09:19:40;16.30;1.00
20650;DHT22;10484;48.736;9.332;2022-10-16T09:22:14;16.40;1.00
20650;DHT22;10484;48.736;9.332;2022-10-16T09:24:40;16.40;1.00
20650;DHT22;10484;48.736;9.332;2022-10-16T09:27:10;16.50;1.00
20650;DHT22;10484;48.736;9.332;2022-10-16T09:29:36;16.50;1.00
20650;DHT22;10484;48.736;9.332;2022-10-16T09:32:28;16.60;1.00
20650;DHT22;10484;48.736;9.332;2022-10-16T09:34:55;16.70;1.00
20650;DHT22;10484;48.736;9.332;2022-10-16T09:37:23;16.70;1.00
20650;DHT22;10484;48.736;9.332;2022-10-16T09:39:50;16.80;1.00
20650;DHT22;10484;48.736;9.332;2022-10-16T09:42:23;16.90;1.00
20650;DHT22;10484;48.736;9.332;2022-10-16T09:44:51;16.90;1.00
20650;DHT22;10484;48.736;9.332;2022-10-16T09:47:23;17.00;1.00
20650;DHT22;10484;48.736;9.332;2022-10-16T09:50:00;17.00;1.00
20650;DHT22;10484;48.736;9.332;2022-10-16T09:52:32;17.10;1.00
20650;DHT22;10484;48.736;9.332;2022-10-16T09:55:00;17.20;1.00
20650;DHT22;10484;48.736;9.332;2022-10-16T09:57:26;17.20;1.00
20650;DHT22;10484;48.736;9.332;2022-10-16T09:59:54;17.30;1.00
20650;DHT22;10484;48.736;9.332;2022-10-16T10:02:50;17.40;1.00
20650;DHT22;10484;48.736;9.332;2022-10-16T10:05:25;17.50;1.00
20650;DHT22;10484;48.736;9.332;2022-10-16T10:07:58;17.60;1.00
20650;DHT22;10484;48.736;9.332;2022-10-16T10:10:30;17.60;1.00
20650;DHT22;10484;48.736;9.332;2022-10-16T10:12:56;17.70;1.00
20650;DHT22;10484;48.736;9.332;2022-10-16T10:15:23;17.90;1.00
20650;DHT22;10484;48.736;9.332;2022-10-16T10:17:52;18.00;1.00
20650;DHT22;10484;48.736;9.332;2022-10-16T10:20:28;18.10;1.00
20650;DHT22;10484;48.736;9.332;2022-10-16T10:22:55;18.30;1.00
20650;DHT22;10484;48.736;9.332;2022-10-16T10:33:35;18.60;1.00
20650;DHT22;10484;48.736;9.332;2022-10-16T10:38:50;18.80;1.00
20650;DHT22;10484;48.736;9.332;2022-10-16T10:41:35;18.90;1.00
20650;DHT22;10484;48.736;9.332;2022-10-16T10:44:26;19.00;1.00
20650;DHT22;10484;48.736;9.332;2022-10-16T10:47:00;19.10;1.00
20650;DHT22;10484;48.736;9.332;2022-10-16T10:55:20;19.50;1.00
20650;DHT22;10484;48.736;9.332;2022-10-16T10:58:20;19.60;1.00
20650;DHT22;10484;48.736;9.332;2022-10-16T11:03:46;19.80;1.00
20650;DHT22;10484;48.736;9.332;2022-10-16T11:06:35;19.90;1.00
20650;DHT22;10484;48.736;9.332;2022-10-16T11:11:41;20.10;1.00
20650;DHT22;10484;48.736;9.332;2022-10-16T11:14:23;20.20;1.00
20650;DHT22;10484;48.736;9.332;2022-10-16T11:16:59;20.30;1.00
20650;DHT22;10484;48.736;9.332;2022-10-16T11:19:50;20.40;1.00
20650;DHT22;10484;48.736;9.332;2022-10-16T11:28:23;20.80;1.00
20650;DHT22;10484;48.736;9.332;2022-10-16T11:31:03;20.90;1.00
20650;DHT22;10484;48.736;9.332;2022-10-16T11:33:41;21.00;1.00
20650;DHT22;10484;48.736;9.332;2022-10-16T11:36:16;21.10;1.00
20650;DHT22;10484;48.736;9.332;2022-10-16T11:39:21;21.10;1.00
20650;DHT22;10484;48.736;9.332;2022-10-16T11:44:43;21.30;1.00
20650;DHT22;10484;48.736;9.332;2022-10-16T11:47:35;21.40;1.00
20650;DHT22;10484;48.736;9.332;2022-10-16T11:56:15;21.70;1.00
20650;DHT22;10484;48.736;9.332;2022-10-16T11:59:13;21.70;1.00
20650;DHT22;10484;48.736;9.332;2022-10-16T12:02:25;21.70;1.00
20650;DHT22;10484;48.736;9.332;2022-10-16T12:05:17;21.80;1.00
20650;DHT22;10484;48.736;9.332;2022-10-16T12:10:33;22.00;1.00
20650;DHT22;10484;48.736;9.332;2022-10-16T12:13:03;22.00;1.00
20650;DHT22;10484;48.736;9.332;2022-10-16T12:15:31;22.10;1.00
20650;DHT22;10484;48.736;9.332;2022-10-16T12:17:57;22.20;1.00
20650;DHT22;10484;48.736;9.332;2022-10-16T12:23:03;22.40;1.00
20650;DHT22;10484;48.736;9.332;2022-10-16T12:25:39;22.40;1.00
20650;DHT22;10484;48.736;9.332;2022-10-16T12:30:42;22.60;1.00
20650;DHT22;10484;48.736;9.332;2022-10-16T12:35:48;22.70;1.00
20650;DHT22;10484;48.736;9.332;2022-10-16T12:41:03;22.80;1.00
20650;DHT22;10484;48.736;9.332;2022-10-16T12:43:46;22.80;1.00
20650;DHT22;10484;48.736;9.332;2022-10-16T12:48:42;22.90;1.00
20650;DHT22;10484;48.736;9.332;2022-10-16T12:54:26;23.00;1.00
20650;DHT22;10484;48.736;9.332;2022-10-16T12:57:13;23.10;1.00
20650;DHT22;10484;48.736;9.332;2022-10-16T13:00:08;23.20;1.00
20650;DHT22;10484;48.736;9.332;2022-10-16T13:21:49;23.00;1.00
20650;DHT22;10484;48.736;9.332;2022-10-16T13:24:23;23.00;1.00
20650;DHT22;10484;48.736;9.332;2022-10-16T13:26:54;23.10;1.00
20650;DHT22;10484;48.736;9.332;2022-10-16T13:29:22;23.10;1.00
20650;DHT22;10484;48.736;9.332;2022-10-16T13:31:48;23.20;1.00
20650;DHT22;10484;48.736;9.332;2022-10-16T13:34:21;23.30;1.00
20650;DHT22;10484;48.736;9.332;2022-10-16T13:36:50;23.30;1.00
20650;DHT22;10484;48.736;9.332;2022-10-16T13:39:28;23.30;1.00
20650;DHT22;10484;48.736;9.332;2022-10-16T13:44:26;23.40;1.00
20650;DHT22;10484;48.736;9.332;2022-10-16T13:46:59;23.50;1.00
20650;DHT22;10484;48.736;9.332;2022-10-16T13:49:25;23.40;1.00
20650;DHT22;10484;48.736;9.332;2022-10-16T13:51:59;23.40;1.00
20650;DHT22;10484;48.736;9.332;2022-10-16T13:54:26;23.40;1.00
20650;DHT22;10484;48.736;9.332;2022-10-16T13:56:54;23.40;1.00
20650;DHT22;10484;48.736;9.332;2022-10-16T13:59:23;23.40;1.00
20650;DHT22;10484;48.736;9.332;2022-10-16T14:01:51;23.40;1.00
20650;DHT22;10484;48.736;9.332;2022-10-16T14:04:19;23.40;1.00
20650;DHT22;10484;48.736;9.332;2022-10-16T14:06:48;23.40;1.00
20650;DHT22;10484;48.736;9.332;2022-10-16T14:09:29;23.40;1.00
20650;DHT22;10484;48.736;9.332;2022-10-16T14:12:07;23.40;1.00
20650;DHT22;10484;48.736;9.332;2022-10-16T14:14:40;23.30;1.00
20650;DHT22;10484;48.736;9.332;2022-10-16T14:17:20;23.30;1.00
20650;DHT22;10484;48.736;9.332;2022-10-16T14:19:48;23.30;1.00
20650;DHT22;10484;48.736;9.332;2022-10-16T14:22:35;23.20;1.00
20650;DHT22;10484;48.736;9.332;2022-10-16T14:28:31;23.10;1.00
20650;DHT22;10484;48.736;9.332;2022-10-16T14:30:34;23.10;1.00
20650;DHT22;10484;48.736;9.332;2022-10-16T14:33:06;23.00;1.00
20650;DHT22;10484;48.736;9.332;2022-10-16T14:35:39;23.00;1.00
20650;DHT22;10484;48.736;9.332;2022-10-16T14:38:06;23.00;1.00
20650;DHT22;10484;48.736;9.332;2022-10-16T14:40:34;23.00;1.00
20650;DHT22;10484;48.736;9.332;2022-10-16T14:43:01;23.00;1.00
20650;DHT22;10484;48.736;9.332;2022-10-16T14:45:31;23.00;1.00
20650;DHT22;10484;48.736;9.332;2022-10-16T14:48:00;23.00;1.00
20650;DHT22;10484;48.736;9.332;2022-10-16T14:50:26;23.00;1.00
20650;DHT22;10484;48.736;9.332;2022-10-16T14:52:53;23.00;1.00
20650;DHT22;10484;48.736;9.332;2022-10-16T14:55:19;22.90;1.00
20650;DHT22;10484;48.736;9.332;2022-10-16T14:57:45;22.90;1.00
20650;DHT22;10484;48.736;9.332;2022-10-16T15:00:19;22.90;1.00
20650;DHT22;10484;48.736;9.332;2022-10-16T15:02:45;22.90;1.00
20650;DHT22;10484;48.736;9.332;2022-10-16T15:05:21;23.00;1.00
20650;DHT22;10484;48.736;9.332;2022-10-16T15:07:48;23.10;1.00
20650;DHT22;10484;48.736;9.332;2022-10-16T15:10:15;23.20;1.00
20650;DHT22;10484;48.736;9.332;2022-10-16T15:12:41;23.20;1.00
20650;DHT22;10484;48.736;9.332;2022-10-16T15:17:48;23.30;1.00
20650;DHT22;10484;48.736;9.332;2022-10-16T15:20:18;23.30;1.00
20650;DHT22;10484;48.736;9.332;2022-10-16T15:22:43;23.30;1.00
20650;DHT22;10484;48.736;9.332;2022-10-16T15:27:58;23.30;1.00
20650;DHT22;10484;48.736;9.332;2022-10-16T15:30:24;23.10;1.00
20650;DHT22;10484;48.736;9.332;2022-10-16T15:32:49;23.00;1.00
20650;DHT22;10484;48.736;9.332;2022-10-16T15:35:15;22.90;1.00
20650;DHT22;10484;48.736;9.332;2022-10-16T15:37:41;22.80;1.00
20650;DHT22;10484;48.736;9.332;2022-10-16T15:40:08;22.70;1.00
20650;DHT22;10484;48.736;9.332;2022-10-16T15:42:34;22.70;1.00
20650;DHT22;10484;48.736;9.332;2022-10-16T15:44:59;22.60;1.00
20650;DHT22;10484;48.736;9.332;2022-10-16T15:47:25;22.50;1.00
20650;DHT22;10484;48.736;9.332;2022-10-16T15:49:50;22.50;1.00
20650;DHT22;10484;48.736;9.332;2022-10-16T15:52:16;22.40;1.00
20650;DHT22;10484;48.736;9.332;2022-10-16T15:54:42;22.40;1.00
20650;DHT22;10484;48.736;9.332;2022-10-16T15:57:08;22.30;1.00
20650;DHT22;10484;48.736;9.332;2022-10-16T15:59:34;22.30;1.00
20650;DHT22;10484;48.736;9.332;2022-10-16T16:01:59;22.20;1.00
20650;DHT22;10484;48.736;9.332;2022-10-16T16:04:25;22.20;1.00
20650;DHT22;10484;48.736;9.332;2022-10-16T16:06:51;22.10;1.00
20650;DHT22;10484;48.736;9.332;2022-10-16T16:09:16;22.10;1.00
20650;DHT22;10484;48.736;9.332;2022-10-16T16:11:42;22.00;1.00
20650;DHT22;10484;48.736;9.332;2022-10-16T16:14:11;22.00;1.00
20650;DHT22;10484;48.736;9.332;2022-10-16T16:16:38;21.90;1.00
20650;DHT22;10484;48.736;9.332;2022-10-16T16:19:05;21.90;1.00
20650;DHT22;10484;48.736;9.332;2022-10-16T16:21:32;21.90;1.00
20650;DHT22;10484;48.736;9.332;2022-10-16T16:23:57;21.80;1.00
20650;DHT22;10484;48.736;9.332;2022-10-16T16:26:27;21.80;1.00
20650;DHT22;10484;48.736;9.332;2022-10-16T16:28:56;21.70;1.00
20650;DHT22;10484;48.736;9.332;2022-10-16T16:31:27;21.70;1.00
20650;DHT22;10484;48.736;9.332;2022-10-16T16:33:53;21.60;1.00
20650;DHT22;10484;48.736;9.332;2022-10-16T16:36:20;21.60;1.00
20650;DHT22;10484;48.736;9.332;2022-10-16T16:38:46;21.60;1.00
20650;DHT22;10484;48.736;9.332;2022-10-16T16:41:23;21.50;1.00
20650;DHT22;10484;48.736;9.332;2022-10-16T16:43:49;21.50;1.00
20650;DHT22;10484;48.736;9.332;2022-10-16T16:46:17;21.40;1.00
20650;DHT22;10484;48.736;9.332;2022-10-16T16:48:42;21.40;1.00
20650;DHT22;10484;48.736;9.332;2022-10-16T16:51:15;21.30;1.00
20650;DHT22;10484;48.736;9.332;2022-10-16T16:53:46;21.20;1.00
20650;DHT22;10484;48.736;9.332;2022-10-16T16:56:13;21.20;1.00
20650;DHT22;10484;48.736;9.332;2022-10-16T16:58:39;21.10;1.00
20650;DHT22;10484;48.736;9.332;2022-10-16T17:01:05;21.10;1.00
20650;DHT22;10484;48.736;9.332;2022-10-16T17:03:33;21.10;1.00
20650;DHT22;10484;48.736;9.332;2022-10-16T17:06:09;21.00;1.00
20650;DHT22;10484;48.736;9.332;2022-10-16T17:08:35;21.00;1.00
20650;DHT22;10484;48.736;9.332;2022-10-16T17:11:01;20.90;1.00
20650;DHT22;10484;48.736;9.332;2022-10-16T17:13:30;20.90;1.00
20650;DHT22;10484;48.736;9.332;2022-10-16T17:15:56;20.80;1.00
20650;DHT22;10484;48.736;9.332;2022-10-16T17:18:23;20.80;1.00
20650;DHT22;10484;48.736;9.332;2022-10-16T17:20:50;20.70;1.00
20650;DHT22;10484;48.736;9.332;2022-10-16T17:23:18;20.70;1.00
20650;DHT22;10484;48.736;9.332;2022-10-16T17:25:45;20.70;1.00
20650;DHT22;10484;48.736;9.332;2022-10-16T17:28:12;20.70;1.00
20650;DHT22;10484;48.736;9.332;2022-10-16T17:30:39;20.60;1.00
20650;DHT22;10484;48.736;9.332;2022-10-16T17:33:06;20.50;1.00
20650;DHT22;10484;48.736;9.332;2022-10-16T17:35:41;20.50;1.00
20650;DHT22;10484;48.736;9.332;2022-10-16T17:38:07;20.40;1.00
20650;DHT22;10484;48.736;9.332;2022-10-16T17:40:33;20.40;1.00
20650;DHT22;10484;48.736;9.332;2022-10-16T17:42:59;20.40;1.00
20650;DHT22;10484;48.736;9.332;2022-10-16T17:45:25;20.30;1.00
20650;DHT22;10484;48.736;9.332;2022-10-16T17:47:51;20.30;1.00
20650;DHT22;10484;48.736;9.332;2022-10-16T17:50:17;20.30;1.00
20650;DHT22;10484;48.736;9.332;2022-10-16T17:52:43;20.20;1.00